Flight Track Log - Related Links

Times and Time Zones

All times are in EDT time to prevent confusion due to time zone crossing. See the N137TK flight status page for this flight to view local times or setup timezone preferences in your user account.

Time Position Orientation Groundspeed Altitude Reporting Facility
EDT Latitude Longitude Course Direction KTS MPH feet Rate Location/Type
Fri 05:13:15 PM 32.3064 -80.7075 203° Southwest 156 180 5,600  Level Jacksonville Center
Fri 05:14:15 PM 32.2733 -80.7231 202° Southwest 151 174 7,400 2,000 Climbing Jacksonville Center
Fri 05:15:15 PM 32.2256 -80.7461 202° Southwest 165 190 9,600 1,800 Climbing Jacksonville Center
Fri 05:16:15 PM 32.1842 -80.7644 201° Southwest 178 205 11,000 1,250 Climbing Jacksonville Center
Fri 05:17:00 PM 32.0384 -80.8073 200° South  Level FlightAware Approximate
Fri 05:17:15 PM 32.1222 -80.7978 205° Southwest 218 251 12,100  Level Jacksonville Center
Fri 05:18:00 PM 31.9761 -80.8369 203° Southwest  Level FlightAware Approximate
Fri 05:18:15 PM 32.0681 -80.8211 200° South 218 251 13,600  Level Jacksonville Center
Fri 05:19:15 PM 32.0206 -80.8442 202° Southwest 213 245 14,700 1,300 Climbing Jacksonville Center
Fri 05:20:15 PM 31.9583 -80.8725 201° Southwest 213 245 16,200 1,250 Climbing Jacksonville Center
Fri 05:21:15 PM 31.9044 -80.9006 204° Southwest 213 245 17,200 1,000 Climbing Jacksonville Center
Fri 05:22:15 PM 31.8547 -80.9236 201° Southwest 213 245 18,200 1,050 Climbing Jacksonville Center
Fri 05:23:15 PM 31.7967 -80.9517 202° Southwest 213 245 19,300 1,100 Climbing Jacksonville Center
Fri 05:24:15 PM 31.7469 -80.9747 202° Southwest 213 245 20,400 1,050 Climbing Jacksonville Center
Fri 05:25:15 PM 31.6953 -81.0003 203° Southwest 208 239 21,400 1,050 Climbing Jacksonville Center
Fri 05:26:15 PM 31.6392 -81.0258 201° Southwest 213 245 22,500 1,000 Climbing Jacksonville Center
Fri 05:27:15 PM 31.5914 -81.0486 202° Southwest 213 245 23,400 750 Climbing Jacksonville Center
Fri 05:28:15 PM 31.5314 -81.0767 202° Southwest 213 245 24,000 300 Climbing Jacksonville Center
Fri 05:29:15 PM 31.4711 -81.1047 202° Southwest 230 265 24,000  Level Jacksonville Center
Fri 05:30:15 PM 31.4086 -81.1033 179° South 251 289 24,000  Level Jacksonville Center
Fri 05:31:15 PM 31.3272 -81.1075 183° South 264 304 24,000  Level Jacksonville Center
Fri 05:32:15 PM 31.2519 -81.1064 179° South 271 312 24,000  Level Jacksonville Center
Fri 05:33:15 PM 31.1769 -81.1078 181° South 266 306 24,000 100 Level Jacksonville Center
Fri 05:34:15 PM 31.1017 -81.1069 179° South 275 316 24,200 350 Climbing Jacksonville Center
Fri 05:35:15 PM 31.0286 -81.1083 181° South 269 310 24,700 500 Climbing Jacksonville Center
Fri 05:36:15 PM 30.9619 -81.1094 181° South 264 304 25,200 500 Climbing Jacksonville Center
Fri 05:37:15 PM 30.8908 -81.1083 179° South 259 298 25,700 400 Climbing Jacksonville Center
Fri 05:38:15 PM 30.8261 -81.1097 181° South 252 290 26,000 150 Climbing Jacksonville Center
Fri 05:39:15 PM 30.7572 -81.1086 179° South 247 284 26,000  Level Jacksonville Center
Fri 05:40:15 PM 30.6861 -81.1100 181° South 252 290 26,000  Level Jacksonville Center
Fri 05:41:15 PM 30.6131 -81.1089 179° South 257 296 26,000  Level Jacksonville Center
Fri 05:42:15 PM 30.5400 -81.0958 171° South 257 296 26,000  Level Jacksonville Center
Fri 05:43:15 PM 30.4667 -81.0803 170° South 262 302 26,000  Level Jacksonville Center
Fri 05:44:15 PM 30.3953 -81.0647 169° South 262 302 26,000  Level Jacksonville Center
Fri 05:45:15 PM 30.3264 -81.0517 171° South 262 302 26,000  Level Jacksonville Center
Fri 05:46:15 PM 30.2550 -81.0361 169° South 267 307 26,000  Level Jacksonville Center
Fri 05:47:15 PM 30.1797 -81.0183 168° South 267 307 26,000  Level Jacksonville Center
Fri 05:48:15 PM 30.1083 -81.0006 168° South 272 313 26,000  Level Jacksonville Center
Fri 05:49:15 PM 30.0331 -80.9875 171° South 272 313 26,000  Level Jacksonville Center
Fri 05:50:15 PM 29.9597 -80.9722 170° South 277 319 26,000  Level Jacksonville Center
Fri 05:51:15 PM 29.8864 -80.9569 170° South 277 319 26,000  Level Jacksonville Center
Fri 05:52:15 PM 29.8153 -80.9417 169° South 277 319 26,000  Level Jacksonville Center
Fri 05:53:15 PM 29.7378 -80.9264 170° South 277 319 26,000  Level Jacksonville Center
Fri 05:54:15 PM 29.6625 -80.9111 170° South 277 319 26,000  Level Jacksonville Center
Fri 05:55:15 PM 29.5911 -80.8911 166° South 277 319 26,000  Level Jacksonville Center
Fri 05:56:15 PM 29.5178 -80.8783 171° South 277 319 26,000  Level Jacksonville Center
Fri 05:57:15 PM 29.4381 -80.8539 165° South 272 313 26,000  Level Jacksonville Center
Fri 05:58:15 PM 29.3650 -80.8458 175° South 274 315 26,000  Level Jacksonville Center
Fri 05:59:15 PM 29.2917 -80.8306 170° South 274 315 26,000  Level Jacksonville Center
Fri 06:00:15 PM 29.2161 -80.8131 169° South 274 315 26,000  Level Jacksonville Center
Fri 06:01:15 PM 29.1428 -80.7956 168° South 274 315 26,000  Level Jacksonville Center
Fri 06:01:34 PM 29.1167 -80.7947 178° South 276 318 26,000  Level Miami Center
Fri 06:02:34 PM 29.0503 -80.7806 169° South 276 318 26,000  Level Miami Center
Fri 06:03:34 PM 28.9778 -80.7639 169° South 276 318 26,000  Level Miami Center
Fri 06:04:34 PM 28.9100 -80.7211 151° Southeast 276 318 26,000  Level Miami Center
Fri 06:05:34 PM 28.8444 -80.6761 149° Southeast 276 318 26,000  Level Miami Center
Fri 06:06:34 PM 28.7708 -80.6264 149° Southeast 282 325 26,000  Level Miami Center
Fri 06:07:34 PM 28.7050 -80.5839 150° Southeast 282 325 26,000  Level Miami Center
Fri 06:08:34 PM 28.6353 -80.5367 149° Southeast 287 330 26,000  Level Miami Center
Fri 06:09:34 PM 28.5739 -80.4967 150° Southeast 287 330 26,000 -200 Level Miami Center
Fri 06:10:34 PM 28.5061 -80.4544 151° Southeast 287 330 25,600 -500 Descending Miami Center
Fri 06:11:34 PM 28.4464 -80.4147 150° Southeast 293 337 25,000 -950 Descending Miami Center
Fri 06:12:34 PM 28.3389 -80.3806 164° South 303 349 23,700 -1,150 Descending Miami Center
Fri 06:13:34 PM 28.2589 -80.4111 199° South 298 343 22,700 -1,000 Descending Miami Center
Fri 06:14:34 PM 28.1989 -80.4658 219° Southwest 287 330 21,700 -1,000 Descending Miami Center
Fri 06:15:34 PM 28.1308 -80.5200 215° Southwest 301 346 20,700 -1,000 Descending Miami Center
Fri 06:16:34 PM 28.0667 -80.5767 218° Southwest 306 352 19,700 -1,000 Descending Miami Center
Fri 06:17:34 PM 28.0108 -80.6408 225° Southwest 300 345 18,700 -950 Descending Miami Center
Fri 06:18:34 PM 27.9550 -80.7047 225° Southwest 288 331 17,800 -950 Descending Miami Center
Fri 06:19:34 PM 27.8989 -80.7711 226° Southwest 294 338 16,800 -1,000 Descending Miami Center
Fri 06:20:34 PM 27.8364 -80.8417 225° Southwest 294 338 15,800 -1,000 Descending Miami Center
Fri 06:21:34 PM 27.7867 -80.9033 228° Southwest 294 338 14,800 -1,050 Descending Miami Center
Fri 06:22:34 PM 27.7219 -80.9736 224° Southwest 294 338 13,700 -1,050 Descending Miami Center
Fri 06:23:34 PM 27.6600 -81.0300 219° Southwest 289 333 12,700 -850 Descending Miami Center
Fri 06:24:34 PM 27.5997 -81.0842 219° Southwest 289 333 12,000 -350 Descending Miami Center
Fri 06:25:34 PM 27.5525 -81.1314 222° Southwest 272 313 12,000  Level Miami Center
Fri 06:26:34 PM 27.5086 -81.2025 235° Southwest 255 293 12,000 200 Level Miami Center
Fri 06:27:34 PM 27.4753 -81.2692 241° Southwest 250 288 12,400 250 Climbing Miami Center
Fri 06:28:34 PM 27.4503 -81.3358 247° West 243 280 12,500 50 Climbing Miami Center
Fri 06:29:34 PM 27.4253 -81.4028 247° West 236 272 12,500  Level Miami Center
Fri 06:30:34 PM 27.3878 -81.4644 236° Southwest 241 277 12,500  Level Miami Center
Fri 06:31:34 PM 27.3322 -81.5042 212° Southwest 241 277 12,500  Level Miami Center
Fri 06:32:34 PM 27.2631 -81.5178 190° South 236 272 12,500  Level Miami Center
Fri 06:33:34 PM 27.1917 -81.5314 190° South 247 284 12,500  Level Miami Center
Fri 06:34:34 PM 27.1244 -81.5403 187° South 247 284 12,500  Level Miami Center
Fri 06:35:34 PM 27.0550 -81.5608 195° South 252 290 12,500  Level Miami Center
Fri 06:36:34 PM 26.9833 -81.5836 196° South 252 290 12,500 -200 Level Miami Center
Fri 06:37:34 PM 26.9119 -81.5969 189° South 252 290 12,100 -700 Descending Miami Center
Fri 06:38:34 PM 26.8447 -81.6058 187° South 269 310 11,100 -1,000 Descending Miami Center
Fri 06:39:34 PM 26.7692 -81.6167 187° South 281 323 10,100 -1,100 Descending Miami Center
Fri 06:40:34 PM 26.6872 -81.6319 189° South 274 315 8,900 -1,200 Descending Miami Center
Fri 06:42:00 PM 26.5879 -81.6325 180° South  Level FlightAware Approximate
Fri 06:49:00 PM 26.1500 -81.7667 204° Southwest  Level FlightAware Approximate
Fri 06:50:00 PM 26.1524 -81.7756 204° Southwest  Level Estimated
Fri 06:51:00 PM 26.1524 -81.7756 204° Southwest  Level Estimated
Fri 06:52:00 PM 26.1524 -81.7756 204° Southwest  Level Estimated
Fri 06:53:00 PM 26.1524 -81.7756 204° Southwest  Level Estimated
Fri 06:54:00 PM 26.1524 -81.7756 204° Southwest  Level Estimated
Fri 06:55:00 PM 26.1524 -81.7756 204° Southwest  Level Estimated
Fri 06:56:00 PM 26.1524 -81.7756 204° Southwest  Level Estimated
Fri 06:57:00 PM 26.1524 -81.7756 204° Southwest  Level Estimated
Fri 06:58:00 PM 26.1524 -81.7756 204° Southwest  Level Estimated

Login

Don't have an account? Register now (free) for customized features, flight alerts, and more!